sensor_id;sensor_type;location;lat;lon;timestamp;P1;durP1;ratioP1;P2;durP2;ratioP2
12005;SDS011;6062;47.294;12.182;2023-04-07T06:29:46;5.77;;;4.40;;
12005;SDS011;6062;47.294;12.182;2023-04-07T06:32:11;6.50;;;4.23;;
12005;SDS011;6062;47.294;12.182;2023-04-07T06:34:37;5.27;;;4.10;;
12005;SDS011;6062;47.294;12.182;2023-04-07T06:37:03;5.83;;;3.97;;
12005;SDS011;6062;47.294;12.182;2023-04-07T06:39:30;5.10;;;3.80;;
12005;SDS011;6062;47.294;12.182;2023-04-07T06:41:56;4.93;;;4.17;;
12005;SDS011;6062;47.294;12.182;2023-04-07T06:44:22;5.07;;;4.10;;
12005;SDS011;6062;47.294;12.182;2023-04-07T06:46:47;7.13;;;4.43;;
12005;SDS011;6062;47.294;12.182;2023-04-07T06:49:17;4.87;;;3.83;;
12005;SDS011;6062;47.294;12.182;2023-04-07T06:51:44;4.90;;;3.40;;
12005;SDS011;6062;47.294;12.182;2023-04-07T06:54:10;6.73;;;4.87;;
12005;SDS011;6062;47.294;12.182;2023-04-07T06:56:38;7.73;;;5.00;;
12005;SDS011;6062;47.294;12.182;2023-04-07T06:59:04;6.37;;;4.77;;
12005;SDS011;6062;47.294;12.182;2023-04-07T07:01:30;5.20;;;4.00;;
12005;SDS011;6062;47.294;12.182;2023-04-07T07:03:56;5.30;;;4.10;;
12005;SDS011;6062;47.294;12.182;2023-04-07T07:06:21;5.77;;;4.60;;
12005;SDS011;6062;47.294;12.182;2023-04-07T07:08:47;5.33;;;3.80;;
12005;SDS011;6062;47.294;12.182;2023-04-07T07:11:13;5.17;;;3.63;;
12005;SDS011;6062;47.294;12.182;2023-04-07T07:13:39;4.77;;;3.73;;
12005;SDS011;6062;47.294;12.182;2023-04-07T07:16:05;4.80;;;3.87;;
12005;SDS011;6062;47.294;12.182;2023-04-07T07:18:30;5.13;;;4.13;;
12005;SDS011;6062;47.294;12.182;2023-04-07T07:20:56;5.53;;;4.23;;
12005;SDS011;6062;47.294;12.182;2023-04-07T07:23:22;5.67;;;4.27;;
12005;SDS011;6062;47.294;12.182;2023-04-07T07:25:47;5.03;;;4.30;;
12005;SDS011;6062;47.294;12.182;2023-04-07T07:28:13;4.90;;;3.73;;
12005;SDS011;6062;47.294;12.182;2023-04-07T07:30:39;4.27;;;3.27;;
12005;SDS011;6062;47.294;12.182;2023-04-07T07:33:05;4.53;;;3.10;;
12005;SDS011;6062;47.294;12.182;2023-04-07T07:35:31;6.30;;;3.67;;
12005;SDS011;6062;47.294;12.182;2023-04-07T07:37:57;4.60;;;3.37;;
12005;SDS011;6062;47.294;12.182;2023-04-07T07:40:23;4.77;;;3.40;;
12005;SDS011;6062;47.294;12.182;2023-04-07T07:42:48;4.07;;;3.07;;
12005;SDS011;6062;47.294;12.182;2023-04-07T07:45:14;4.60;;;3.67;;
12005;SDS011;6062;47.294;12.182;2023-04-07T07:47:41;7.00;;;3.77;;
12005;SDS011;6062;47.294;12.182;2023-04-07T07:50:07;4.50;;;3.73;;
12005;SDS011;6062;47.294;12.182;2023-04-07T07:52:33;4.63;;;3.57;;
12005;SDS011;6062;47.294;12.182;2023-04-07T07:54:59;5.17;;;3.77;;
12005;SDS011;6062;47.294;12.182;2023-04-07T07:57:25;4.57;;;3.60;;
12005;SDS011;6062;47.294;12.182;2023-04-07T07:59:50;5.57;;;3.57;;
12005;SDS011;6062;47.294;12.182;2023-04-07T08:02:17;5.30;;;3.80;;
12005;SDS011;6062;47.294;12.182;2023-04-07T08:04:43;5.73;;;4.40;;
12005;SDS011;6062;47.294;12.182;2023-04-07T08:07:09;5.70;;;3.80;;
12005;SDS011;6062;47.294;12.182;2023-04-07T08:09:35;5.83;;;4.03;;
12005;SDS011;6062;47.294;12.182;2023-04-07T08:12:02;4.27;;;3.50;;
12005;SDS011;6062;47.294;12.182;2023-04-07T08:14:28;4.37;;;3.30;;
12005;SDS011;6062;47.294;12.182;2023-04-07T08:16:54;4.53;;;3.73;;
12005;SDS011;6062;47.294;12.182;2023-04-07T08:19:20;5.90;;;4.70;;
12005;SDS011;6062;47.294;12.182;2023-04-07T08:21:45;6.37;;;4.93;;
12005;SDS011;6062;47.294;12.182;2023-04-07T08:24:11;7.43;;;5.13;;
12005;SDS011;6062;47.294;12.182;2023-04-07T08:26:37;5.70;;;4.37;;
12005;SDS011;6062;47.294;12.182;2023-04-07T08:29:02;5.00;;;3.90;;
12005;SDS011;6062;47.294;12.182;2023-04-07T08:31:28;6.77;;;4.13;;
12005;SDS011;6062;47.294;12.182;2023-04-07T08:33:54;6.33;;;4.67;;
12005;SDS011;6062;47.294;12.182;2023-04-07T08:36:25;19.23;;;11.77;;
12005;SDS011;6062;47.294;12.182;2023-04-07T08:38:52;9.87;;;7.00;;
12005;SDS011;6062;47.294;12.182;2023-04-07T08:41:23;5.37;;;3.83;;
12005;SDS011;6062;47.294;12.182;2023-04-07T08:43:57;5.33;;;4.37;;
12005;SDS011;6062;47.294;12.182;2023-04-07T08:46:25;4.17;;;3.47;;
12005;SDS011;6062;47.294;12.182;2023-04-07T08:48:52;6.97;;;4.90;;
12005;SDS011;6062;47.294;12.182;2023-04-07T08:51:28;6.95;;;4.35;;
12005;SDS011;6062;47.294;12.182;2023-04-07T08:53:59;4.80;;;3.97;;
12005;SDS011;6062;47.294;12.182;2023-04-07T08:56:36;4.60;;;3.60;;
12005;SDS011;6062;47.294;12.182;2023-04-07T08:59:07;4.13;;;2.92;;
12005;SDS011;6062;47.294;12.182;2023-04-07T09:01:40;2.70;;;2.47;;
12005;SDS011;6062;47.294;12.182;2023-04-07T09:04:06;7.45;;;4.63;;
12005;SDS011;6062;47.294;12.182;2023-04-07T09:06:33;15.05;;;8.50;;
12005;SDS011;6062;47.294;12.182;2023-04-07T09:09:00;4.38;;;3.55;;
12005;SDS011;6062;47.294;12.182;2023-04-07T09:11:28;6.78;;;4.75;;
12005;SDS011;6062;47.294;12.182;2023-04-07T09:13:57;4.68;;;3.55;;
12005;SDS011;6062;47.294;12.182;2023-04-07T09:16:22;3.13;;;2.75;;
12005;SDS011;6062;47.294;12.182;2023-04-07T09:18:52;4.53;;;3.40;;
12005;SDS011;6062;47.294;12.182;2023-04-07T09:21:18;11.82;;;7.10;;
12005;SDS011;6062;47.294;12.182;2023-04-07T09:23:44;8.50;;;4.68;;
12005;SDS011;6062;47.294;12.182;2023-04-07T09:29:07;3.28;;;2.90;;
12005;SDS011;6062;47.294;12.182;2023-04-07T09:31:45;3.70;;;2.33;;
12005;SDS011;6062;47.294;12.182;2023-04-07T09:34:33;6.00;;;3.83;;
12005;SDS011;6062;47.294;12.182;2023-04-07T09:37:03;4.93;;;3.53;;
12005;SDS011;6062;47.294;12.182;2023-04-07T09:39:31;3.25;;;2.90;;
12005;SDS011;6062;47.294;12.182;2023-04-07T09:41:57;3.78;;;2.67;;
12005;SDS011;6062;47.294;12.182;2023-04-07T09:44:30;4.50;;;3.30;;
12005;SDS011;6062;47.294;12.182;2023-04-07T09:47:05;3.15;;;2.53;;
12005;SDS011;6062;47.294;12.182;2023-04-07T09:49:31;3.60;;;2.53;;
12005;SDS011;6062;47.294;12.182;2023-04-07T09:51:58;2.47;;;2.25;;
12005;SDS011;6062;47.294;12.182;2023-04-07T09:54:38;2.80;;;2.22;;
12005;SDS011;6062;47.294;12.182;2023-04-07T09:57:06;2.58;;;2.25;;
12005;SDS011;6062;47.294;12.182;2023-04-07T09:59:35;3.00;;;2.00;;
12005;SDS011;6062;47.294;12.182;2023-04-07T10:02:04;2.45;;;2.25;;
12005;SDS011;6062;47.294;12.182;2023-04-07T10:04:30;2.80;;;2.50;;
12005;SDS011;6062;47.294;12.182;2023-04-07T10:06:57;3.75;;;2.40;;
12005;SDS011;6062;47.294;12.182;2023-04-07T10:09:27;3.13;;;2.78;;
12005;SDS011;6062;47.294;12.182;2023-04-07T10:11:55;3.88;;;3.40;;
12005;SDS011;6062;47.294;12.182;2023-04-07T10:14:26;3.42;;;3.13;;
12005;SDS011;6062;47.294;12.182;2023-04-07T10:16:56;4.10;;;3.15;;
12005;SDS011;6062;47.294;12.182;2023-04-07T10:19:30;3.75;;;3.22;;
12005;SDS011;6062;47.294;12.182;2023-04-07T10:21:58;4.72;;;3.30;;
12005;SDS011;6062;47.294;12.182;2023-04-07T10:24:50;3.67;;;3.00;;
12005;SDS011;6062;47.294;12.182;2023-04-07T10:27:28;4.32;;;3.28;;
12005;SDS011;6062;47.294;12.182;2023-04-07T10:29:59;3.60;;;3.28;;
12005;SDS011;6062;47.294;12.182;2023-04-07T10:32:28;3.47;;;2.90;;
12005;SDS011;6062;47.294;12.182;2023-04-07T10:34:55;3.17;;;2.88;;
12005;SDS011;6062;47.294;12.182;2023-04-07T10:37:22;3.00;;;2.70;;
12005;SDS011;6062;47.294;12.182;2023-04-07T10:40:35;3.20;;;2.83;;
12005;SDS011;6062;47.294;12.182;2023-04-07T10:42:50;2.85;;;2.50;;
12005;SDS011;6062;47.294;12.182;2023-04-07T10:45:16;3.92;;;2.85;;
12005;SDS011;6062;47.294;12.182;2023-04-07T10:48:12;3.72;;;2.72;;
12005;SDS011;6062;47.294;12.182;2023-04-07T10:50:40;3.10;;;2.67;;
12005;SDS011;6062;47.294;12.182;2023-04-07T10:53:10;2.83;;;2.55;;
12005;SDS011;6062;47.294;12.182;2023-04-07T10:55:41;2.88;;;2.50;;
12005;SDS011;6062;47.294;12.182;2023-04-07T11:03:24;3.08;;;2.75;;
12005;SDS011;6062;47.294;12.182;2023-04-07T11:05:52;2.58;;;2.38;;
12005;SDS011;6062;47.294;12.182;2023-04-07T11:08:32;2.47;;;2.28;;
12005;SDS011;6062;47.294;12.182;2023-04-07T11:11:13;4.00;;;2.67;;
12005;SDS011;6062;47.294;12.182;2023-04-07T11:13:42;2.67;;;2.47;;
12005;SDS011;6062;47.294;12.182;2023-04-07T11:16:16;2.53;;;2.17;;
12005;SDS011;6062;47.294;12.182;2023-04-07T11:18:44;2.60;;;2.05;;
12005;SDS011;6062;47.294;12.182;2023-04-07T11:21:16;2.97;;;2.50;;
12005;SDS011;6062;47.294;12.182;2023-04-07T11:23:43;2.42;;;2.22;;
12005;SDS011;6062;47.294;12.182;2023-04-07T11:26:11;2.55;;;2.10;;
12005;SDS011;6062;47.294;12.182;2023-04-07T11:28:45;1.80;;;1.60;;
12005;SDS011;6062;47.294;12.182;2023-04-07T11:31:26;2.15;;;1.70;;
12005;SDS011;6062;47.294;12.182;2023-04-07T11:33:55;2.67;;;1.88;;
12005;SDS011;6062;47.294;12.182;2023-04-07T11:36:25;2.65;;;2.05;;
12005;SDS011;6062;47.294;12.182;2023-04-07T11:38:56;2.22;;;2.00;;
12005;SDS011;6062;47.294;12.182;2023-04-07T11:41:23;2.35;;;2.00;;
12005;SDS011;6062;47.294;12.182;2023-04-07T11:44:07;2.10;;;1.88;;
12005;SDS011;6062;47.294;12.182;2023-04-07T11:46:35;2.30;;;2.03;;
12005;SDS011;6062;47.294;12.182;2023-04-07T11:49:22;2.15;;;1.95;;
12005;SDS011;6062;47.294;12.182;2023-04-07T11:52:00;2.28;;;1.92;;
12005;SDS011;6062;47.294;12.182;2023-04-07T11:54:42;2.17;;;1.98;;
12005;SDS011;6062;47.294;12.182;2023-04-07T11:57:11;2.58;;;2.30;;
12005;SDS011;6062;47.294;12.182;2023-04-07T11:59:38;2.20;;;2.00;;
12005;SDS011;6062;47.294;12.182;2023-04-07T12:02:05;2.70;;;2.05;;
12005;SDS011;6062;47.294;12.182;2023-04-07T12:04:32;2.60;;;2.03;;
12005;SDS011;6062;47.294;12.182;2023-04-07T12:07:07;2.30;;;2.10;;
12005;SDS011;6062;47.294;12.182;2023-04-07T12:09:34;2.20;;;2.00;;
12005;SDS011;6062;47.294;12.182;2023-04-07T12:12:02;4.15;;;2.58;;
12005;SDS011;6062;47.294;12.182;2023-04-07T12:14:30;2.50;;;2.20;;
12005;SDS011;6062;47.294;12.182;2023-04-07T12:16:56;2.20;;;2.00;;
12005;SDS011;6062;47.294;12.182;2023-04-07T12:19:24;2.53;;;2.25;;
12005;SDS011;6062;47.294;12.182;2023-04-07T12:21:52;2.42;;;1.90;;
12005;SDS011;6062;47.294;12.182;2023-04-07T12:24:18;2.22;;;2.03;;
12005;SDS011;6062;47.294;12.182;2023-04-07T12:26:45;2.35;;;2.15;;
12005;SDS011;6062;47.294;12.182;2023-04-07T12:29:12;3.28;;;1.85;;
12005;SDS011;6062;47.294;12.182;2023-04-07T12:31:38;2.30;;;2.10;;
12005;SDS011;6062;47.294;12.182;2023-04-07T12:34:04;3.78;;;2.20;;
12005;SDS011;6062;47.294;12.182;2023-04-07T12:36:30;2.15;;;1.95;;
12005;SDS011;6062;47.294;12.182;2023-04-07T12:38:57;3.17;;;1.95;;
12005;SDS011;6062;47.294;12.182;2023-04-07T12:41:23;3.17;;;1.98;;
12005;SDS011;6062;47.294;12.182;2023-04-07T12:43:50;2.63;;;2.00;;
12005;SDS011;6062;47.294;12.182;2023-04-07T12:46:15;2.72;;;2.22;;
12005;SDS011;6062;47.294;12.182;2023-04-07T12:48:41;2.60;;;2.08;;
12005;SDS011;6062;47.294;12.182;2023-04-07T12:51:08;2.17;;;1.98;;
12005;SDS011;6062;47.294;12.182;2023-04-07T12:53:34;3.03;;;1.80;;
12005;SDS011;6062;47.294;12.182;2023-04-07T12:55:59;2.30;;;2.00;;
12005;SDS011;6062;47.294;12.182;2023-04-07T12:58:25;2.30;;;1.88;;
12005;SDS011;6062;47.294;12.182;2023-04-07T13:00:54;2.30;;;1.85;;
12005;SDS011;6062;47.294;12.182;2023-04-07T13:03:20;2.40;;;2.20;;
12005;SDS011;6062;47.294;12.182;2023-04-07T13:05:46;2.70;;;2.00;;
12005;SDS011;6062;47.294;12.182;2023-04-07T13:08:12;2.47;;;1.98;;
12005;SDS011;6062;47.294;12.182;2023-04-07T13:10:38;3.72;;;1.90;;
12005;SDS011;6062;47.294;12.182;2023-04-07T13:13:03;2.42;;;2.08;;
12005;SDS011;6062;47.294;12.182;2023-04-07T13:15:29;1.75;;;1.65;;
12005;SDS011;6062;47.294;12.182;2023-04-07T13:17:55;2.38;;;2.17;;
12005;SDS011;6062;47.294;12.182;2023-04-07T13:20:21;2.40;;;2.08;;
12005;SDS011;6062;47.294;12.182;2023-04-07T13:22:47;2.25;;;2.05;;
12005;SDS011;6062;47.294;12.182;2023-04-07T13:25:13;3.70;;;2.05;;
12005;SDS011;6062;47.294;12.182;2023-04-07T13:27:38;2.33;;;2.13;;
12005;SDS011;6062;47.294;12.182;2023-04-07T13:30:04;2.53;;;2.33;;
12005;SDS011;6062;47.294;12.182;2023-04-07T13:32:31;3.50;;;2.20;;
12005;SDS011;6062;47.294;12.182;2023-04-07T13:34:56;2.28;;;1.98;;
12005;SDS011;6062;47.294;12.182;2023-04-07T13:37:23;2.53;;;2.17;;
12005;SDS011;6062;47.294;12.182;2023-04-07T13:39:49;1.80;;;1.70;;
12005;SDS011;6062;47.294;12.182;2023-04-07T13:42:16;2.53;;;2.03;;
12005;SDS011;6062;47.294;12.182;2023-04-07T13:44:43;2.75;;;1.80;;
12005;SDS011;6062;47.294;12.182;2023-04-07T13:47:14;2.95;;;2.17;;
12005;SDS011;6062;47.294;12.182;2023-04-07T13:49:44;2.50;;;2.10;;
12005;SDS011;6062;47.294;12.182;2023-04-07T13:52:11;2.95;;;2.55;;
12005;SDS011;6062;47.294;12.182;2023-04-07T13:54:38;4.10;;;2.65;;
12005;SDS011;6062;47.294;12.182;2023-04-07T13:57:04;2.20;;;2.00;;
12005;SDS011;6062;47.294;12.182;2023-04-07T13:59:29;3.03;;;2.40;;
12005;SDS011;6062;47.294;12.182;2023-04-07T14:01:55;2.25;;;2.00;;
12005;SDS011;6062;47.294;12.182;2023-04-07T14:04:21;2.45;;;2.05;;
12005;SDS011;6062;47.294;12.182;2023-04-07T14:06:47;3.00;;;2.33;;
12005;SDS011;6062;47.294;12.182;2023-04-07T14:09:12;3.05;;;2.75;;
12005;SDS011;6062;47.294;12.182;2023-04-07T14:11:38;3.00;;;2.40;;
12005;SDS011;6062;47.294;12.182;2023-04-07T14:14:04;2.78;;;2.42;;
12005;SDS011;6062;47.294;12.182;2023-04-07T14:16:30;3.70;;;2.88;;
12005;SDS011;6062;47.294;12.182;2023-04-07T14:18:56;3.30;;;2.55;;
12005;SDS011;6062;47.294;12.182;2023-04-07T14:21:22;3.70;;;2.65;;
12005;SDS011;6062;47.294;12.182;2023-04-07T14:23:48;3.45;;;2.40;;
12005;SDS011;6062;47.294;12.182;2023-04-07T14:26:14;2.45;;;2.05;;
12005;SDS011;6062;47.294;12.182;2023-04-07T14:28:40;2.80;;;2.40;;
12005;SDS011;6062;47.294;12.182;2023-04-07T14:31:10;4.03;;;2.50;;
12005;SDS011;6062;47.294;12.182;2023-04-07T14:33:38;3.33;;;2.33;;
12005;SDS011;6062;47.294;12.182;2023-04-07T14:36:04;3.22;;;2.50;;
12005;SDS011;6062;47.294;12.182;2023-04-07T14:38:30;2.50;;;2.17;;
12005;SDS011;6062;47.294;12.182;2023-04-07T14:40:55;3.45;;;2.47;;
12005;SDS011;6062;47.294;12.182;2023-04-07T14:43:21;3.45;;;3.00;;
12005;SDS011;6062;47.294;12.182;2023-04-07T14:45:47;3.53;;;2.47;;
12005;SDS011;6062;47.294;12.182;2023-04-07T14:48:12;2.90;;;2.55;;
12005;SDS011;6062;47.294;12.182;2023-04-07T14:50:38;3.17;;;2.67;;
12005;SDS011;6062;47.294;12.182;2023-04-07T14:53:04;3.63;;;2.78;;
12005;SDS011;6062;47.294;12.182;2023-04-07T14:55:30;3.75;;;2.55;;
12005;SDS011;6062;47.294;12.182;2023-04-07T14:57:56;3.45;;;3.15;;
12005;SDS011;6062;47.294;12.182;2023-04-07T15:00:22;4.13;;;3.03;;
12005;SDS011;6062;47.294;12.182;2023-04-07T15:02:50;3.23;;;2.40;;
12005;SDS011;6062;47.294;12.182;2023-04-07T15:05:17;3.28;;;2.83;;
12005;SDS011;6062;47.294;12.182;2023-04-07T15:07:44;3.67;;;2.80;;
12005;SDS011;6062;47.294;12.182;2023-04-07T15:10:13;3.42;;;2.60;;
12005;SDS011;6062;47.294;12.182;2023-04-07T15:12:41;3.43;;;2.60;;
12005;SDS011;6062;47.294;12.182;2023-04-07T15:15:07;2.50;;;2.30;;
12005;SDS011;6062;47.294;12.182;2023-04-07T15:17:32;2.87;;;2.37;;
12005;SDS011;6062;47.294;12.182;2023-04-07T15:19:58;4.20;;;2.70;;
12005;SDS011;6062;47.294;12.182;2023-04-07T15:22:24;3.73;;;2.63;;
12005;SDS011;6062;47.294;12.182;2023-04-07T15:24:49;3.40;;;2.67;;
12005;SDS011;6062;47.294;12.182;2023-04-07T15:27:15;3.22;;;2.67;;
12005;SDS011;6062;47.294;12.182;2023-04-07T15:29:41;3.20;;;2.90;;
12005;SDS011;6062;47.294;12.182;2023-04-07T15:32:07;3.90;;;2.60;;
12005;SDS011;6062;47.294;12.182;2023-04-07T15:34:33;3.67;;;2.42;;
12005;SDS011;6062;47.294;12.182;2023-04-07T15:36:58;4.70;;;2.70;;
12005;SDS011;6062;47.294;12.182;2023-04-07T15:39:24;3.47;;;3.00;;
12005;SDS011;6062;47.294;12.182;2023-04-07T15:41:50;3.95;;;2.90;;
12005;SDS011;6062;47.294;12.182;2023-04-07T15:44:15;2.80;;;2.50;;
12005;SDS011;6062;47.294;12.182;2023-04-07T15:46:45;3.15;;;2.85;;
12005;SDS011;6062;47.294;12.182;2023-04-07T15:49:11;3.58;;;2.78;;
12005;SDS011;6062;47.294;12.182;2023-04-07T15:51:36;3.20;;;2.50;;
12005;SDS011;6062;47.294;12.182;2023-04-07T15:54:02;3.88;;;2.45;;
12005;SDS011;6062;47.294;12.182;2023-04-07T15:56:28;2.80;;;2.42;;
12005;SDS011;6062;47.294;12.182;2023-04-07T15:58:53;4.20;;;2.70;;
12005;SDS011;6062;47.294;12.182;2023-04-07T16:01:19;2.25;;;2.03;;
12005;SDS011;6062;47.294;12.182;2023-04-07T16:03:45;2.37;;;1.97;;
12005;SDS011;6062;47.294;12.182;2023-04-07T16:06:11;2.00;;;1.80;;
12005;SDS011;6062;47.294;12.182;2023-04-07T16:08:37;1.85;;;1.50;;
12005;SDS011;6062;47.294;12.182;2023-04-07T16:11:03;2.53;;;2.33;;
12005;SDS011;6062;47.294;12.182;2023-04-07T16:13:28;2.53;;;2.08;;
12005;SDS011;6062;47.294;12.182;2023-04-07T16:15:55;2.50;;;2.13;;
12005;SDS011;6062;47.294;12.182;2023-04-07T16:18:21;3.33;;;2.43;;
12005;SDS011;6062;47.294;12.182;2023-04-07T16:20:47;4.35;;;2.47;;
12005;SDS011;6062;47.294;12.182;2023-04-07T16:23:12;2.50;;;2.30;;
12005;SDS011;6062;47.294;12.182;2023-04-07T16:25:38;2.60;;;2.17;;
12005;SDS011;6062;47.294;12.182;2023-04-07T16:28:04;4.40;;;2.57;;
12005;SDS011;6062;47.294;12.182;2023-04-07T16:30:30;4.05;;;2.50;;
12005;SDS011;6062;47.294;12.182;2023-04-07T16:32:55;3.55;;;2.58;;
12005;SDS011;6062;47.294;12.182;2023-04-07T16:35:21;4.47;;;2.50;;
12005;SDS011;6062;47.294;12.182;2023-04-07T16:37:47;2.78;;;2.22;;
12005;SDS011;6062;47.294;12.182;2023-04-07T16:40:14;2.60;;;2.20;;
12005;SDS011;6062;47.294;12.182;2023-04-07T16:42:40;3.50;;;2.20;;
12005;SDS011;6062;47.294;12.182;2023-04-07T16:45:06;2.97;;;2.30;;
12005;SDS011;6062;47.294;12.182;2023-04-07T16:47:32;2.23;;;2.03;;
12005;SDS011;6062;47.294;12.182;2023-04-07T16:49:58;2.43;;;2.00;;
12005;SDS011;6062;47.294;12.182;2023-04-07T16:52:24;4.10;;;2.10;;
12005;SDS011;6062;47.294;12.182;2023-04-07T16:54:50;5.33;;;2.20;;
12005;SDS011;6062;47.294;12.182;2023-04-07T16:57:17;2.37;;;2.10;;
12005;SDS011;6062;47.294;12.182;2023-04-07T16:59:43;5.87;;;2.70;;
12005;SDS011;6062;47.294;12.182;2023-04-07T17:02:09;2.57;;;2.07;;
12005;SDS011;6062;47.294;12.182;2023-04-07T17:04:37;4.00;;;2.10;;
12005;SDS011;6062;47.294;12.182;2023-04-07T17:07:05;2.30;;;1.90;;
12005;SDS011;6062;47.294;12.182;2023-04-07T17:09:31;6.10;;;2.10;;
12005;SDS011;6062;47.294;12.182;2023-04-07T17:11:57;44.70;;;3.30;;
12005;SDS011;6062;47.294;12.182;2023-04-07T17:14:24;41.23;;;3.17;;
12005;SDS011;6062;47.294;12.182;2023-04-07T17:16:50;232.03;;;7.80;;
12005;SDS011;6062;47.294;12.182;2023-04-07T17:19:15;250.30;;;7.73;;
12005;SDS011;6062;47.294;12.182;2023-04-07T17:21:41;18.77;;;2.57;;
12005;SDS011;6062;47.294;12.182;2023-04-07T17:24:07;353.90;;;10.77;;
12005;SDS011;6062;47.294;12.182;2023-04-07T17:26:33;103.67;;;4.57;;
12005;SDS011;6062;47.294;12.182;2023-04-07T17:28:59;65.90;;;3.70;;
12005;SDS011;6062;47.294;12.182;2023-04-07T17:31:25;68.60;;;4.07;;
12005;SDS011;6062;47.294;12.182;2023-04-07T17:33:51;42.20;;;2.87;;
12005;SDS011;6062;47.294;12.182;2023-04-07T17:36:16;58.57;;;4.20;;
12005;SDS011;6062;47.294;12.182;2023-04-07T17:38:45;225.87;;;8.43;;
12005;SDS011;6062;47.294;12.182;2023-04-07T17:41:11;139.17;;;5.27;;
12005;SDS011;6062;47.294;12.182;2023-04-07T17:43:37;6.73;;;2.10;;
12005;SDS011;6062;47.294;12.182;2023-04-07T17:46:03;28.73;;;3.10;;
12005;SDS011;6062;47.294;12.182;2023-04-07T17:48:29;65.47;;;5.53;;
12005;SDS011;6062;47.294;12.182;2023-04-07T17:50:56;54.83;;;5.00;;
12005;SDS011;6062;47.294;12.182;2023-04-07T17:53:22;37.13;;;5.23;;
12005;SDS011;6062;47.294;12.182;2023-04-07T17:55:48;24.17;;;5.57;;
12005;SDS011;6062;47.294;12.182;2023-04-07T17:58:14;14.40;;;3.33;;
12005;SDS011;6062;47.294;12.182;2023-04-07T18:00:40;21.47;;;2.77;;
12005;SDS011;6062;47.294;12.182;2023-04-07T18:03:06;31.10;;;4.20;;
12005;SDS011;6062;47.294;12.182;2023-04-07T18:05:34;5.30;;;3.00;;
12005;SDS011;6062;47.294;12.182;2023-04-07T18:08:00;4.10;;;2.67;;
12005;SDS011;6062;47.294;12.182;2023-04-07T18:10:32;12.97;;;3.97;;
12005;SDS011;6062;47.294;12.182;2023-04-07T18:12:57;18.70;;;3.83;;
12005;SDS011;6062;47.294;12.182;2023-04-07T18:15:23;46.97;;;4.37;;
12005;SDS011;6062;47.294;12.182;2023-04-07T18:17:49;130.93;;;5.67;;
12005;SDS011;6062;47.294;12.182;2023-04-07T18:20:16;80.40;;;4.57;;
12005;SDS011;6062;47.294;12.182;2023-04-07T18:22:43;75.23;;;4.50;;
12005;SDS011;6062;47.294;12.182;2023-04-07T18:25:09;2.63;;;2.10;;
12005;SDS011;6062;47.294;12.182;2023-04-07T18:27:35;2.90;;;1.97;;
12005;SDS011;6062;47.294;12.182;2023-04-07T18:30:01;2.67;;;1.80;;
12005;SDS011;6062;47.294;12.182;2023-04-07T18:32:27;6.80;;;1.90;;
12005;SDS011;6062;47.294;12.182;2023-04-07T18:34:53;4.10;;;1.90;;
12005;SDS011;6062;47.294;12.182;2023-04-07T18:37:19;4.27;;;2.00;;
12005;SDS011;6062;47.294;12.182;2023-04-07T18:39:45;2.20;;;1.90;;
12005;SDS011;6062;47.294;12.182;2023-04-07T18:42:11;1.77;;;1.67;;
12005;SDS011;6062;47.294;12.182;2023-04-07T18:44:37;2.13;;;1.80;;
12005;SDS011;6062;47.294;12.182;2023-04-07T18:47:03;20.73;;;2.30;;
12005;SDS011;6062;47.294;12.182;2023-04-07T18:49:29;10.87;;;2.00;;
12005;SDS011;6062;47.294;12.182;2023-04-07T18:51:55;16.87;;;2.23;;
12005;SDS011;6062;47.294;12.182;2023-04-07T18:54:21;92.33;;;5.20;;
12005;SDS011;6062;47.294;12.182;2023-04-07T18:56:49;92.00;;;5.17;;
12005;SDS011;6062;47.294;12.182;2023-04-07T18:59:15;115.37;;;5.67;;
12005;SDS011;6062;47.294;12.182;2023-04-07T19:01:41;62.03;;;4.40;;
12005;SDS011;6062;47.294;12.182;2023-04-07T19:04:06;119.20;;;4.87;;
12005;SDS011;6062;47.294;12.182;2023-04-07T19:06:32;25.83;;;3.73;;
12005;SDS011;6062;47.294;12.182;2023-04-07T19:08:59;48.83;;;3.87;;
12005;SDS011;6062;47.294;12.182;2023-04-07T19:11:25;21.10;;;2.70;;
12005;SDS011;6062;47.294;12.182;2023-04-07T19:13:51;16.80;;;2.43;;
12005;SDS011;6062;47.294;12.182;2023-04-07T19:16:17;4.67;;;3.03;;
12005;SDS011;6062;47.294;12.182;2023-04-07T19:18:45;2.93;;;2.37;;
12005;SDS011;6062;47.294;12.182;2023-04-07T19:21:11;3.50;;;2.60;;
12005;SDS011;6062;47.294;12.182;2023-04-07T19:23:37;5.13;;;3.90;;
12005;SDS011;6062;47.294;12.182;2023-04-07T19:26:06;9.60;;;7.10;;
12005;SDS011;6062;47.294;12.182;2023-04-07T19:28:34;11.13;;;8.03;;
12005;SDS011;6062;47.294;12.182;2023-04-07T19:31:00;38.73;;;17.73;;
12005;SDS011;6062;47.294;12.182;2023-04-07T19:33:26;83.53;;;33.83;;
12005;SDS011;6062;47.294;12.182;2023-04-07T19:35:52;52.20;;;21.67;;
12005;SDS011;6062;47.294;12.182;2023-04-07T19:38:17;77.80;;;30.87;;
12005;SDS011;6062;47.294;12.182;2023-04-07T19:40:43;73.53;;;31.63;;
12005;SDS011;6062;47.294;12.182;2023-04-07T19:43:09;43.27;;;21.70;;
12005;SDS011;6062;47.294;12.182;2023-04-07T19:45:35;19.97;;;10.00;;
12005;SDS011;6062;47.294;12.182;2023-04-07T19:48:01;33.27;;;19.70;;
12005;SDS011;6062;47.294;12.182;2023-04-07T19:50:27;28.23;;;18.80;;
12005;SDS011;6062;47.294;12.182;2023-04-07T19:52:53;11.00;;;7.40;;
12005;SDS011;6062;47.294;12.182;2023-04-07T19:55:18;6.77;;;4.63;;
12005;SDS011;6062;47.294;12.182;2023-04-07T19:57:44;5.07;;;3.60;;
12005;SDS011;6062;47.294;12.182;2023-04-07T20:00:11;5.17;;;3.23;;
12005;SDS011;6062;47.294;12.182;2023-04-07T20:02:37;6.40;;;3.23;;
12005;SDS011;6062;47.294;12.182;2023-04-07T20:05:03;3.70;;;2.80;;
12005;SDS011;6062;47.294;12.182;2023-04-07T20:07:29;5.20;;;3.20;;
12005;SDS011;6062;47.294;12.182;2023-04-07T20:09:56;3.17;;;2.63;;
12005;SDS011;6062;47.294;12.182;2023-04-07T20:12:22;3.60;;;2.50;;
12005;SDS011;6062;47.294;12.182;2023-04-07T20:14:48;3.03;;;2.67;;
12005;SDS011;6062;47.294;12.182;2023-04-07T20:17:14;4.40;;;2.97;;
12005;SDS011;6062;47.294;12.182;2023-04-07T20:19:40;3.53;;;2.70;;
12005;SDS011;6062;47.294;12.182;2023-04-07T20:22:06;3.80;;;2.80;;
12005;SDS011;6062;47.294;12.182;2023-04-07T20:24:35;11.80;;;9.37;;
12005;SDS011;6062;47.294;12.182;2023-04-07T20:27:03;4.23;;;3.47;;
12005;SDS011;6062;47.294;12.182;2023-04-07T20:29:28;4.57;;;2.83;;
12005;SDS011;6062;47.294;12.182;2023-04-07T20:31:54;6.47;;;4.43;;
12005;SDS011;6062;47.294;12.182;2023-04-07T20:34:20;3.47;;;2.63;;
12005;SDS011;6062;47.294;12.182;2023-04-07T20:36:46;3.80;;;2.80;;
12005;SDS011;6062;47.294;12.182;2023-04-07T20:39:14;3.80;;;2.43;;
12005;SDS011;6062;47.294;12.182;2023-04-07T20:41:40;3.53;;;2.40;;
12005;SDS011;6062;47.294;12.182;2023-04-07T20:44:07;2.33;;;1.90;;
12005;SDS011;6062;47.294;12.182;2023-04-07T20:46:33;3.07;;;2.20;;
12005;SDS011;6062;47.294;12.182;2023-04-07T20:48:58;3.30;;;2.80;;
12005;SDS011;6062;47.294;12.182;2023-04-07T20:51:24;3.50;;;2.70;;
12005;SDS011;6062;47.294;12.182;2023-04-07T20:53:50;3.50;;;2.73;;
12005;SDS011;6062;47.294;12.182;2023-04-07T20:56:16;3.60;;;2.73;;
12005;SDS011;6062;47.294;12.182;2023-04-07T20:58:42;3.53;;;2.73;;
12005;SDS011;6062;47.294;12.182;2023-04-07T21:01:08;3.43;;;2.70;;
12005;SDS011;6062;47.294;12.182;2023-04-07T21:03:33;3.73;;;2.57;;
12005;SDS011;6062;47.294;12.182;2023-04-07T21:06:00;5.43;;;2.60;;
12005;SDS011;6062;47.294;12.182;2023-04-07T21:08:28;3.30;;;2.30;;
12005;SDS011;6062;47.294;12.182;2023-04-07T21:10:54;2.97;;;2.60;;
12005;SDS011;6062;47.294;12.182;2023-04-07T21:13:20;4.60;;;2.73;;
12005;SDS011;6062;47.294;12.182;2023-04-07T21:15:46;3.47;;;2.43;;
12005;SDS011;6062;47.294;12.182;2023-04-07T21:18:12;2.60;;;2.40;;
12005;SDS011;6062;47.294;12.182;2023-04-07T21:20:38;3.37;;;2.70;;
12005;SDS011;6062;47.294;12.182;2023-04-07T21:23:04;3.53;;;2.60;;